createdAt,value
2023-05-20T00:02:21.730Z,24.40
2023-05-20T00:04:53.209Z,24.33
2023-05-20T00:07:22.928Z,23.00
2023-05-20T00:09:53.014Z,21.55
2023-05-20T00:12:22.680Z,23.65
2023-05-20T00:14:53.745Z,23.55
2023-05-20T00:17:24.241Z,22.52
2023-05-20T00:19:53.816Z,23.98
2023-05-20T00:22:23.594Z,21.90
2023-05-20T00:24:53.260Z,20.80
2023-05-20T00:27:22.839Z,21.35
2023-05-20T00:29:52.496Z,23.25
2023-05-20T00:32:22.213Z,20.80
2023-05-20T00:35:02.096Z,19.33
2023-05-20T00:37:31.836Z,20.08
2023-05-20T00:40:01.468Z,22.48
2023-05-20T00:42:34.043Z,20.58
2023-05-20T00:45:05.985Z,20.65
2023-05-20T00:47:38.288Z,20.85
2023-05-20T00:50:08.925Z,20.70
2023-05-20T00:52:39.410Z,20.25
2023-05-20T00:55:11.846Z,21.10
2023-05-20T00:57:41.498Z,20.00
2023-05-20T01:00:12.532Z,19.90
2023-05-20T01:02:42.450Z,21.15
2023-05-20T01:05:12.387Z,19.80
2023-05-20T01:07:42.060Z,17.88
2023-05-20T01:10:12.293Z,20.55
2023-05-20T01:12:51.546Z,21.15
2023-05-20T01:15:23.421Z,19.40
2023-05-20T01:17:59.790Z,17.98
2023-05-20T01:20:34.168Z,18.20
2023-05-20T01:23:04.326Z,18.65
2023-05-20T01:25:34.271Z,17.67
2023-05-20T01:28:04.200Z,18.00
2023-05-20T01:30:39.961Z,18.42
2023-05-20T01:33:16.345Z,17.52
2023-05-20T01:35:46.190Z,19.42
2023-05-20T01:38:17.762Z,19.75
2023-05-20T01:40:48.572Z,18.50
2023-05-20T01:43:20.486Z,18.20
2023-05-20T01:45:50.224Z,17.83
2023-05-20T01:48:19.954Z,17.15
2023-05-20T01:50:49.711Z,17.13
2023-05-20T01:53:19.488Z,17.83
2023-05-20T01:55:49.086Z,17.35
2023-05-20T01:58:21.608Z,18.17
2023-05-20T02:00:55.141Z,16.92
2023-05-20T02:03:24.832Z,16.88
2023-05-20T02:05:54.550Z,17.08
2023-05-20T02:08:24.226Z,17.15
2023-05-20T02:10:53.915Z,18.27
2023-05-20T02:13:23.530Z,17.73
2023-05-20T02:15:53.767Z,17.20
2023-05-20T02:18:24.203Z,16.17
2023-05-20T02:20:54.115Z,18.50
2023-05-20T02:23:23.800Z,17.10
2023-05-20T02:25:53.620Z,16.33
2023-05-20T02:28:23.204Z,18.85
2023-05-20T02:30:55.904Z,18.00
2023-05-20T02:33:25.590Z,16.88
2023-05-20T02:35:55.365Z,17.80
2023-05-20T02:38:24.995Z,17.77
2023-05-20T02:40:54.529Z,16.58
2023-05-20T02:43:24.265Z,17.63
2023-05-20T02:45:53.868Z,16.33
2023-05-20T02:48:23.707Z,16.98
2023-05-20T02:50:54.865Z,16.73
2023-05-20T02:53:26.531Z,17.00
2023-05-20T02:55:56.204Z,16.67
2023-05-20T02:58:28.014Z,15.75
2023-05-20T03:00:59.337Z,17.40
2023-05-20T03:03:29.716Z,17.02
2023-05-20T03:05:59.419Z,17.35
2023-05-20T03:08:29.228Z,17.17
2023-05-20T03:10:58.902Z,16.73
2023-05-20T03:13:28.540Z,16.52
2023-05-20T03:15:58.270Z,18.13
2023-05-20T03:18:27.950Z,16.35
2023-05-20T03:20:58.041Z,15.57
2023-05-20T03:23:27.682Z,16.50
2023-05-20T03:25:57.651Z,17.13
2023-05-20T03:28:27.591Z,17.60
2023-05-20T03:30:57.432Z,17.75
2023-05-20T03:33:27.948Z,17.85
2023-05-20T03:35:57.569Z,16.70
2023-05-20T03:38:27.336Z,16.95
2023-05-20T03:40:56.883Z,16.88
2023-05-20T03:43:27.231Z,17.55
2023-05-20T03:45:56.854Z,16.98
2023-05-20T03:48:26.713Z,17.23
2023-05-20T03:50:57.229Z,17.02
2023-05-20T03:53:27.172Z,16.23
2023-05-20T03:55:56.770Z,16.27
2023-05-20T03:58:26.926Z,16.95
2023-05-20T04:00:59.717Z,18.05
2023-05-20T04:03:30.653Z,16.75
2023-05-20T04:06:00.396Z,18.52
2023-05-20T04:08:29.965Z,17.70
2023-05-20T04:10:59.951Z,17.85
2023-05-20T04:13:29.627Z,17.73
2023-05-20T04:15:59.316Z,16.40
2023-05-20T04:18:31.597Z,15.90
2023-05-20T04:21:03.315Z,16.33
2023-05-20T04:23:32.907Z,15.95
2023-05-20T04:26:03.988Z,14.77
2023-05-20T04:28:33.646Z,14.27
2023-05-20T04:31:07.058Z,15.68
2023-05-20T04:33:43.436Z,14.90
2023-05-20T04:36:17.706Z,14.40
2023-05-20T04:38:47.737Z,14.77
2023-05-20T04:41:17.770Z,15.50
2023-05-20T04:43:50.199Z,15.02
2023-05-20T04:46:20.455Z,16.13
2023-05-20T04:48:50.429Z,16.40
2023-05-20T04:51:20.749Z,16.17
2023-05-20T04:53:52.548Z,15.55
2023-05-20T04:56:22.533Z,14.13
2023-05-20T04:58:52.220Z,16.05
2023-05-20T05:01:22.242Z,15.00
2023-05-20T05:03:51.990Z,14.23
2023-05-20T05:06:21.630Z,14.48
2023-05-20T05:08:53.794Z,13.65
2023-05-20T05:11:23.435Z,14.30
2023-05-20T05:13:53.101Z,14.40
2023-05-20T05:16:25.773Z,13.15
2023-05-20T05:18:57.775Z,14.30
2023-05-20T05:21:27.440Z,12.50
2023-05-20T05:23:58.373Z,14.98
2023-05-20T05:26:28.294Z,12.45
2023-05-20T05:29:00.368Z,12.50
2023-05-20T05:31:32.799Z,13.23
2023-05-20T05:34:02.464Z,12.25
2023-05-20T05:36:34.327Z,12.98
2023-05-20T05:39:03.950Z,12.77
2023-05-20T05:41:33.649Z,12.05
2023-05-20T05:44:03.381Z,12.63
2023-05-20T05:46:36.059Z,11.98
2023-05-20T05:49:05.850Z,12.52
2023-05-20T05:51:38.825Z,12.35
2023-05-20T05:54:08.685Z,11.48
2023-05-20T05:56:38.263Z,12.07
2023-05-20T05:59:08.078Z,12.55
2023-05-20T06:01:38.989Z,11.95
2023-05-20T06:04:08.713Z,11.77
2023-05-20T06:06:38.867Z,12.32
2023-05-20T06:09:08.587Z,12.68
2023-05-20T06:11:38.224Z,12.48
2023-05-20T06:14:07.824Z,12.70
2023-05-20T06:16:38.075Z,12.20
2023-05-20T06:19:10.744Z,11.95
2023-05-20T06:21:40.445Z,12.70
2023-05-20T06:24:10.043Z,11.70
2023-05-20T06:26:39.791Z,11.10
2023-05-20T06:29:09.384Z,10.50
2023-05-20T06:31:39.045Z,10.55
2023-05-20T06:34:08.799Z,10.82
2023-05-20T06:36:38.381Z,12.32
2023-05-20T06:39:13.837Z,13.38
2023-05-20T06:41:43.454Z,12.55
2023-05-20T06:44:13.200Z,13.70
2023-05-20T06:46:42.870Z,12.35
2023-05-20T06:49:12.767Z,12.90
2023-05-20T06:51:43.134Z,13.32
2023-05-20T06:54:12.927Z,13.90
2023-05-20T06:56:44.635Z,12.63
2023-05-20T06:59:14.267Z,11.52
2023-05-20T07:01:44.025Z,12.40
2023-05-20T07:04:13.762Z,12.25
2023-05-20T07:06:44.208Z,11.73
2023-05-20T07:09:13.927Z,12.27
2023-05-20T07:11:43.448Z,11.85
2023-05-20T07:14:13.177Z,13.90
2023-05-20T07:16:42.839Z,12.27
2023-05-20T07:19:12.502Z,11.07
2023-05-20T07:21:42.269Z,13.05
2023-05-20T07:24:11.943Z,11.85
2023-05-20T07:26:43.575Z,12.63
2023-05-20T07:29:13.231Z,13.75
2023-05-20T07:31:42.882Z,11.75
2023-05-20T07:34:14.665Z,11.85
2023-05-20T07:36:45.404Z,11.98
2023-05-20T07:39:16.173Z,11.73
2023-05-20T07:41:45.820Z,11.63
2023-05-20T07:44:15.648Z,12.07
2023-05-20T07:46:45.381Z,11.23
2023-05-20T07:49:15.390Z,11.48
2023-05-20T07:51:48.928Z,11.88
2023-05-20T07:54:18.689Z,11.93
2023-05-20T07:56:48.344Z,11.07
2023-05-20T07:59:18.030Z,11.68
2023-05-20T08:01:47.639Z,11.48
2023-05-20T08:04:17.286Z,11.48
2023-05-20T08:06:47.439Z,10.50
2023-05-20T08:09:17.469Z,11.50
2023-05-20T08:11:47.768Z,10.95
2023-05-20T08:14:17.611Z,10.93
2023-05-20T08:16:47.408Z,11.25
2023-05-20T08:19:17.193Z,10.30
2023-05-20T08:21:46.913Z,10.23
2023-05-20T08:24:16.629Z,9.93
2023-05-20T08:26:46.324Z,11.07
2023-05-20T08:29:15.962Z,10.82
2023-05-20T08:31:47.394Z,10.05
2023-05-20T08:34:17.202Z,9.40
2023-05-20T08:36:47.801Z,10.77
2023-05-20T08:39:17.525Z,9.45
2023-05-20T08:41:50.048Z,10.60
2023-05-20T08:44:21.570Z,11.50
2023-05-20T08:46:51.915Z,11.38
2023-05-20T08:49:23.045Z,10.98
2023-05-20T08:51:53.470Z,10.40
2023-05-20T08:54:25.630Z,11.82
2023-05-20T08:56:55.793Z,11.05
2023-05-20T08:59:25.625Z,10.07
2023-05-20T09:01:55.245Z,11.27
2023-05-20T09:04:24.956Z,10.68
2023-05-20T09:06:54.850Z,11.10
2023-05-20T09:09:25.261Z,11.65
2023-05-20T09:11:54.851Z,10.40
2023-05-20T09:14:25.359Z,10.48
2023-05-20T09:16:57.664Z,11.07
2023-05-20T09:19:28.253Z,11.00
2023-05-20T09:21:57.994Z,11.23
2023-05-20T09:24:28.536Z,10.98
2023-05-20T09:26:59.212Z,12.30
2023-05-20T09:29:29.102Z,12.05
2023-05-20T09:31:59.367Z,11.63
2023-05-20T09:34:29.136Z,11.63
2023-05-20T09:37:03.582Z,11.68
2023-05-20T09:39:41.695Z,10.20
2023-05-20T09:42:37.634Z,11.15
2023-05-20T09:45:13.989Z,10.90
2023-05-20T09:47:45.394Z,11.35
2023-05-20T09:50:18.186Z,11.43
2023-05-20T09:52:49.178Z,11.02
2023-05-20T09:55:21.068Z,11.70
2023-05-20T09:57:50.952Z,11.25
2023-05-20T10:00:21.156Z,12.95
2023-05-20T10:02:55.225Z,12.85
2023-05-20T10:05:32.944Z,12.60
2023-05-20T10:08:41.888Z,12.32
2023-05-20T10:11:50.683Z,13.52
2023-05-20T10:14:48.592Z,13.10
2023-05-20T10:17:41.366Z,12.57
2023-05-20T10:20:13.730Z,12.77
2023-05-20T10:22:43.603Z,12.77
2023-05-20T10:25:27.006Z,12.38
2023-05-20T10:28:12.755Z,12.80
2023-05-20T10:30:53.011Z,12.80
2023-05-20T10:33:22.742Z,12.52
2023-05-20T10:35:56.952Z,14.88
2023-05-20T10:38:26.704Z,12.48
2023-05-20T10:40:56.402Z,12.73
2023-05-20T10:43:30.711Z,13.45
2023-05-20T10:46:04.870Z,12.45
2023-05-20T10:48:35.822Z,13.25
2023-05-20T10:51:06.578Z,14.90
2023-05-20T10:53:49.060Z,15.90
2023-05-20T10:56:25.055Z,15.40
2023-05-20T10:58:56.364Z,17.10
2023-05-20T11:01:30.575Z,16.05
2023-05-20T11:04:02.519Z,14.30
2023-05-20T11:06:33.305Z,14.55
2023-05-20T11:09:10.688Z,17.02
2023-05-20T11:11:40.461Z,14.88
2023-05-20T11:14:10.195Z,15.23
2023-05-20T11:16:39.883Z,16.05
2023-05-20T11:19:18.343Z,14.88
2023-05-20T11:21:52.399Z,15.68
2023-05-20T11:24:32.951Z,14.57
2023-05-20T11:27:04.399Z,14.38
2023-05-20T11:29:34.161Z,15.30
2023-05-20T11:32:04.369Z,14.63
2023-05-20T11:34:39.661Z,14.10
2023-05-20T11:37:13.438Z,14.65
2023-05-20T11:39:43.103Z,14.23
2023-05-20T11:42:12.831Z,15.85
2023-05-20T11:44:46.994Z,13.90
2023-05-20T11:47:19.261Z,15.38
2023-05-20T11:49:51.591Z,14.48
2023-05-20T11:52:21.734Z,14.20
2023-05-20T11:54:55.813Z,13.10
2023-05-20T11:57:25.491Z,13.65
2023-05-20T11:59:55.189Z,14.55
2023-05-20T12:02:25.023Z,13.98
2023-05-20T12:04:54.774Z,13.05
2023-05-20T12:07:25.102Z,14.57
2023-05-20T12:09:54.757Z,13.75
2023-05-20T12:12:24.456Z,12.43
2023-05-20T12:14:54.175Z,13.70
2023-05-20T12:17:23.904Z,12.98
2023-05-20T12:19:53.563Z,11.90
2023-05-20T12:22:23.151Z,12.95
2023-05-20T12:24:54.725Z,12.73
2023-05-20T12:27:25.411Z,12.93
2023-05-20T12:29:55.074Z,12.80
2023-05-20T12:32:26.828Z,13.80
2023-05-20T12:34:56.523Z,12.75
2023-05-20T12:37:26.376Z,13.43
2023-05-20T12:39:56.290Z,11.80
2023-05-20T12:42:25.967Z,12.68
2023-05-20T12:44:55.807Z,13.40
2023-05-20T12:47:25.546Z,12.63
2023-05-20T12:49:55.911Z,13.85
2023-05-20T12:52:25.727Z,13.20
2023-05-20T12:54:57.970Z,13.02
2023-05-20T12:57:27.907Z,12.80
2023-05-20T12:59:58.379Z,12.90
2023-05-20T13:02:28.288Z,12.35
2023-05-20T13:04:58.212Z,11.70
2023-05-20T13:07:28.670Z,12.27
2023-05-20T13:09:58.361Z,11.52
2023-05-20T13:12:28.132Z,11.52
2023-05-20T13:14:57.782Z,12.30
2023-05-20T13:17:27.377Z,12.55
2023-05-20T13:19:58.141Z,12.70
2023-05-20T13:22:27.846Z,12.85
2023-05-20T13:24:57.573Z,13.88
2023-05-20T13:27:27.457Z,12.00
2023-05-20T13:29:57.235Z,12.85
2023-05-20T13:32:27.124Z,12.40
2023-05-20T13:35:01.888Z,13.57
2023-05-20T13:37:31.927Z,13.25
2023-05-20T13:40:01.645Z,13.43
2023-05-20T13:42:31.292Z,13.70
2023-05-20T13:45:00.939Z,13.98
2023-05-20T13:47:30.608Z,14.07
2023-05-20T13:50:02.640Z,14.07
2023-05-20T13:52:32.911Z,12.65
2023-05-20T13:55:02.581Z,14.77
2023-05-20T13:57:32.247Z,13.77
2023-05-20T14:00:02.013Z,14.13
2023-05-20T14:02:31.852Z,14.45
2023-05-20T14:05:01.485Z,13.10
2023-05-20T14:07:31.289Z,14.20
2023-05-20T14:10:00.896Z,15.05
2023-05-20T14:12:30.711Z,14.25
2023-05-20T14:15:00.750Z,14.35
2023-05-20T14:17:30.416Z,13.43
2023-05-20T14:20:00.038Z,15.85
2023-05-20T14:22:29.697Z,14.80
2023-05-20T14:24:59.943Z,13.88
2023-05-20T14:27:29.946Z,14.85
2023-05-20T14:29:59.487Z,14.52
2023-05-20T14:32:31.687Z,15.05
2023-05-20T14:35:01.783Z,14.68
2023-05-20T14:37:31.393Z,16.95
2023-05-20T14:40:03.930Z,16.08
2023-05-20T14:42:33.534Z,15.63
2023-05-20T14:45:03.253Z,17.08
2023-05-20T14:47:33.143Z,16.58
2023-05-20T14:50:02.957Z,15.60
2023-05-20T14:52:32.599Z,14.73
2023-05-20T14:55:02.356Z,15.05
2023-05-20T14:57:33.721Z,15.07
2023-05-20T15:00:03.411Z,18.30
2023-05-20T15:02:33.163Z,17.10
2023-05-20T15:05:03.054Z,16.13
2023-05-20T15:07:33.178Z,17.73
2023-05-20T15:10:02.826Z,15.82
2023-05-20T15:12:32.449Z,17.05
2023-05-20T15:15:02.184Z,16.08
2023-05-20T15:17:31.933Z,15.57
2023-05-20T15:20:01.948Z,15.13
2023-05-20T15:22:31.974Z,15.20
2023-05-20T15:25:01.721Z,16.15
2023-05-20T15:27:31.476Z,16.88
2023-05-20T15:30:01.158Z,15.75
2023-05-20T15:32:30.844Z,15.75
2023-05-20T15:35:01.904Z,15.70
2023-05-20T15:37:32.449Z,15.80
2023-05-20T15:40:02.242Z,16.00
2023-05-20T15:42:32.217Z,15.90
2023-05-20T15:45:01.802Z,15.93
2023-05-20T15:47:31.414Z,15.55
2023-05-20T15:50:01.774Z,15.60
2023-05-20T15:52:31.796Z,14.10
2023-05-20T15:55:02.240Z,15.52
2023-05-20T15:57:32.317Z,14.35
2023-05-20T16:00:02.413Z,14.85
2023-05-20T16:02:36.071Z,14.80
2023-05-20T16:05:06.879Z,14.13
2023-05-20T16:07:36.518Z,13.23
2023-05-20T16:10:06.851Z,14.45
2023-05-20T16:12:39.491Z,14.60
2023-05-20T16:15:09.961Z,14.52
2023-05-20T16:17:40.002Z,15.85
2023-05-20T16:20:10.709Z,15.90
2023-05-20T16:22:40.345Z,15.60
2023-05-20T16:25:10.657Z,16.25
2023-05-20T16:27:40.624Z,15.85
2023-05-20T16:30:10.819Z,18.38
2023-05-20T16:32:41.376Z,16.45
2023-05-20T16:35:11.516Z,16.83
2023-05-20T16:37:41.189Z,16.58
2023-05-20T16:40:11.384Z,16.90
2023-05-20T16:42:41.490Z,15.95
2023-05-20T16:45:11.661Z,16.33
2023-05-20T16:47:41.390Z,17.17
2023-05-20T16:50:11.740Z,17.30
2023-05-20T16:52:41.716Z,19.42
2023-05-20T16:55:12.684Z,18.95
2023-05-20T16:57:42.607Z,18.48
2023-05-20T17:00:13.144Z,19.65
2023-05-20T17:02:43.137Z,17.75
2023-05-20T17:05:16.642Z,17.30
2023-05-20T17:07:46.511Z,17.88
2023-05-20T17:10:16.139Z,18.27
2023-05-20T17:12:45.714Z,15.90
2023-05-20T17:15:15.432Z,18.35
2023-05-20T17:17:45.083Z,16.55
2023-05-20T17:20:15.117Z,18.25
2023-05-20T17:22:44.765Z,16.83
2023-05-20T17:25:14.555Z,17.52
2023-05-20T17:27:44.358Z,18.80
2023-05-20T17:30:17.480Z,16.65
2023-05-20T17:32:50.518Z,17.02
2023-05-20T17:35:22.389Z,16.60
2023-05-20T17:37:52.090Z,18.52
2023-05-20T17:40:24.517Z,17.08
2023-05-20T17:42:54.174Z,16.80
2023-05-20T17:45:23.886Z,17.02
2023-05-20T17:47:53.756Z,17.70
2023-05-20T17:50:23.515Z,17.15
2023-05-20T17:52:53.404Z,16.67
2023-05-20T17:55:23.670Z,16.75
2023-05-20T17:57:55.129Z,17.95
2023-05-20T18:00:24.734Z,17.58
2023-05-20T18:02:58.036Z,17.45
2023-05-20T18:05:29.987Z,17.38
2023-05-20T18:07:59.748Z,17.40
2023-05-20T18:10:29.351Z,16.40
2023-05-20T18:12:58.909Z,17.60
2023-05-20T18:15:28.635Z,16.48
2023-05-20T18:17:58.375Z,16.23
2023-05-20T18:20:28.038Z,17.30
2023-05-20T18:23:00.200Z,16.58
2023-05-20T18:25:29.970Z,17.40
2023-05-20T18:27:59.625Z,17.55
2023-05-20T18:30:29.324Z,17.45
2023-05-20T18:32:59.123Z,18.63
2023-05-20T18:35:28.832Z,18.73
2023-05-20T18:37:58.529Z,18.05
2023-05-20T18:40:29.752Z,17.98
2023-05-20T18:43:00.069Z,18.95
2023-05-20T18:45:29.611Z,20.13
2023-05-20T18:48:01.523Z,20.63
2023-05-20T18:50:31.147Z,20.30
2023-05-20T18:53:04.576Z,20.45
2023-05-20T18:55:34.223Z,20.92
2023-05-20T18:58:03.866Z,22.48
2023-05-20T19:00:33.753Z,21.70
2023-05-20T19:03:03.576Z,20.10
2023-05-20T19:05:36.107Z,19.15
2023-05-20T19:08:07.409Z,20.50
2023-05-20T19:10:37.256Z,19.92
2023-05-20T19:13:06.851Z,18.50
2023-05-20T19:15:37.084Z,19.83
2023-05-20T19:18:07.307Z,19.00
2023-05-20T19:20:36.926Z,18.85
2023-05-20T19:23:06.524Z,18.88
2023-05-20T19:25:36.478Z,20.20
2023-05-20T19:28:06.643Z,20.40
2023-05-20T19:30:36.145Z,20.13
2023-05-20T19:33:07.192Z,18.05
2023-05-20T19:35:36.918Z,18.60
2023-05-20T19:38:10.380Z,19.67
2023-05-20T19:40:40.106Z,19.10
2023-05-20T19:43:09.707Z,20.20
2023-05-20T19:45:39.709Z,19.92
2023-05-20T19:48:09.732Z,18.88
2023-05-20T19:50:39.604Z,19.50
2023-05-20T19:53:09.496Z,20.98
2023-05-20T19:55:40.173Z,20.48
2023-05-20T19:58:09.795Z,21.70
2023-05-20T20:00:39.793Z,20.27
2023-05-20T20:03:09.478Z,19.55
2023-05-20T20:05:39.347Z,20.38
2023-05-20T20:08:09.095Z,19.25
2023-05-20T20:10:39.206Z,20.80
2023-05-20T20:13:08.804Z,21.52
2023-05-20T20:15:38.699Z,21.23
2023-05-20T20:18:08.489Z,19.98
2023-05-20T20:20:39.690Z,20.73
2023-05-20T20:23:10.299Z,19.88
2023-05-20T20:25:41.012Z,19.77
2023-05-20T20:28:12.826Z,19.42
2023-05-20T20:30:42.680Z,18.92
2023-05-20T20:33:12.946Z,20.20
2023-05-20T20:35:42.830Z,18.88
2023-05-20T20:38:12.504Z,19.15
2023-05-20T20:40:43.971Z,19.25
2023-05-20T20:43:21.204Z,19.77
2023-05-20T20:45:54.696Z,19.30
2023-05-20T20:48:28.579Z,19.75
2023-05-20T20:50:58.214Z,19.05
2023-05-20T20:53:28.493Z,18.88
2023-05-20T20:55:58.518Z,19.40
2023-05-20T20:58:28.360Z,17.33
2023-05-20T21:00:58.011Z,19.15
2023-05-20T21:03:28.116Z,18.13
2023-05-20T21:05:57.810Z,19.38
2023-05-20T21:08:29.474Z,18.83
2023-05-20T21:11:02.329Z,18.45
2023-05-20T21:13:33.102Z,17.83
2023-05-20T21:16:02.965Z,19.58
2023-05-20T21:18:32.589Z,19.40
2023-05-20T21:21:02.587Z,19.85
2023-05-20T21:23:32.500Z,19.58
2023-05-20T21:26:02.161Z,20.42
2023-05-20T21:28:32.434Z,20.40
2023-05-20T21:31:01.980Z,19.45
2023-05-20T21:33:31.668Z,19.15
2023-05-20T21:36:01.224Z,18.23
2023-05-20T21:38:30.813Z,18.42
2023-05-20T21:41:00.545Z,17.48
2023-05-20T21:43:30.960Z,18.20
2023-05-20T21:46:00.694Z,17.85
2023-05-20T21:48:30.279Z,20.08
2023-05-20T21:50:59.892Z,18.70
2023-05-20T21:53:29.775Z,17.92
2023-05-20T21:55:59.486Z,18.38
2023-05-20T21:58:29.328Z,18.15
2023-05-20T22:00:59.175Z,18.25
2023-05-20T22:03:28.947Z,18.13
2023-05-20T22:05:58.895Z,18.05
2023-05-20T22:08:29.863Z,17.77
2023-05-20T22:11:01.139Z,18.30
2023-05-20T22:13:31.712Z,18.30
2023-05-20T22:16:03.102Z,18.92
2023-05-20T22:18:33.361Z,19.00
2023-05-20T22:21:03.005Z,19.25
2023-05-20T22:23:32.735Z,19.17
2023-05-20T22:26:02.415Z,19.65
2023-05-20T22:28:32.070Z,18.48
2023-05-20T22:31:02.310Z,18.48
2023-05-20T22:33:31.927Z,19.40
2023-05-20T22:36:01.622Z,19.83
2023-05-20T22:38:32.487Z,19.00
2023-05-20T22:41:02.265Z,18.58
2023-05-20T22:43:32.121Z,19.35
2023-05-20T22:46:01.707Z,20.98
2023-05-20T22:48:32.188Z,19.50
2023-05-20T22:51:02.886Z,19.92
2023-05-20T22:53:33.074Z,19.55
2023-05-20T22:56:03.365Z,20.70
2023-05-20T22:58:41.028Z,20.73
2023-05-20T23:01:13.572Z,20.77
2023-05-20T23:03:43.380Z,20.73
2023-05-20T23:06:13.287Z,20.45
2023-05-20T23:08:46.198Z,19.48
2023-05-20T23:11:15.900Z,21.13
2023-05-20T23:13:45.646Z,22.33
2023-05-20T23:16:15.818Z,20.45
2023-05-20T23:18:45.625Z,20.50
2023-05-20T23:21:16.171Z,21.02
2023-05-20T23:23:45.778Z,20.48
2023-05-20T23:26:18.155Z,21.70
2023-05-20T23:28:47.855Z,18.02
2023-05-20T23:31:17.600Z,20.20
2023-05-20T23:33:50.046Z,20.48
2023-05-20T23:36:21.711Z,19.20
2023-05-20T23:38:53.795Z,19.42
2023-05-20T23:41:24.030Z,19.45
2023-05-20T23:43:53.797Z,20.90
2023-05-20T23:46:25.302Z,20.77
2023-05-20T23:48:55.392Z,22.27
2023-05-20T23:51:25.015Z,23.17
2023-05-20T23:53:54.920Z,22.08
2023-05-20T23:56:25.019Z,22.25
2023-05-20T23:58:54.711Z,21.73
